Flight Track Log - Related Links

Times and Time Zones

All times are in EDT time to prevent confusion due to time zone crossing. See the SWA1046 flight status page for this flight to view local times or setup timezone preferences in your user account.

Time Position Orientation Groundspeed Altitude Reporting Facility
EDT Latitude Longitude Course Direction KTS MPH feet Rate Location/Type
Sun 07:57:50 PM 39.3947 -119.7647 177° South 235 270 9,000  Level Oakland Center
Sun 07:58:51 PM 39.3244 -119.7347 162° South 309 356 11,700 2,878 Climbing Oakland Center
Sun 07:59:53 PM 39.2681 -119.6525 132° Southeast 308 354 14,900 2,683 Climbing Oakland Center
Sun 08:00:54 PM 39.2058 -119.5628 132° Southeast 330 380 17,200 2,732 Climbing Oakland Center
Sun 08:01:56 PM 39.1358 -119.4581 131° Southeast 372 428 20,500 2,878 Climbing Oakland Center
Sun 08:02:00 PM 39.3683 -119.4523 133° Southeast  Level FlightAware Approximate
Sun 08:02:57 PM 39.0608 -119.3569 134° Southeast 389 448 23,100  Level Oakland Center
Sun 08:03:59 PM 38.9661 -119.2342 135° Southeast 404 465 25,900 2,146 Climbing Oakland Center
Sun 08:05:00 PM 38.8850 -119.1253 134° Southeast 420 483 27,500 1,377 Climbing Oakland Center
Sun 08:06:01 PM 38.7964 -119.0092 134° Southeast 454 522 28,700 1,659 Climbing Oakland Center
Sun 08:07:03 PM 38.7022 -118.8889 135° Southeast 476 548 30,900 2,098 Climbing Oakland Center
Sun 08:08:04 PM 38.6117 -118.7692 134° Southeast 474 545 33,000 1,024 Climbing Oakland Center
Sun 08:09:06 PM 38.5172 -118.6497 135° Southeast 476 548 33,000  Level Oakland Center
Sun 08:10:07 PM 38.4228 -118.5294 135° Southeast 479 551 33,000  Level Oakland Center
Sun 08:11:09 PM 38.3092 -118.3817 134° Southeast 485 558 33,000  Level Oakland Center
Sun 08:12:10 PM 38.2136 -118.2614 135° Southeast 485 558 33,000  Level Oakland Center
Sun 08:13:11 PM 38.1186 -118.1389 135° Southeast 486 559 33,000 49 Level Oakland Center
Sun 08:14:13 PM 38.0156 -118.0242 139° Southeast 494 568 33,100  Climbing Oakland Center
Sun 08:15:14 PM 37.9042 -117.9053 140° Southeast 519 597 33,000 -49 Descending Oakland Center
Sun 08:16:16 PM 37.7947 -117.7875 140° Southeast 522 601 33,000  Level Oakland Center
Sun 08:17:17 PM 37.6861 -117.6722 140° Southeast 516 594 33,000  Level Oakland Center
Sun 08:18:18 PM 37.5586 -117.5358 140° Southeast 506 582 33,000  Level Oakland Center
Sun 08:19:20 PM 37.4514 -117.4253 141° Southeast 502 578 33,000  Level Oakland Center
Sun 08:19:54 PM 37.3883 -117.3567 139° Southeast 501 577 33,000  Level Los Angeles Center
Sun 08:20:56 PM 37.2822 -117.2444 140° Southeast 500 575 33,000  Level Los Angeles Center
Sun 08:21:58 PM 37.1778 -117.1356 140° Southeast 494 568 33,000  Level Los Angeles Center
Sun 08:23:00 PM 37.0731 -117.0278 141° Southeast 489 563 33,000  Level Los Angeles Center
Sun 08:24:02 PM 36.9700 -116.9206 140° Southeast 485 558 33,000  Level Los Angeles Center
Sun 08:25:04 PM 36.8653 -116.8131 141° Southeast 486 559 33,000 -1,258 Level Los Angeles Center
Sun 08:26:06 PM 36.7492 -116.6756 136° Southeast 481 554 30,400 -2,496 Descending Los Angeles Center
Sun 08:27:09 PM 36.6617 -116.5478 130° Southeast 482 555 27,800 -2,352 Descending Los Angeles Center
Sun 08:28:11 PM 36.5772 -116.4278 131° Southeast 468 539 25,500 -2,226 Descending Los Angeles Center
Sun 08:29:13 PM 36.4900 -116.3042 131° Southeast 448 516 23,200 -2,129 Descending Los Angeles Center
Sun 08:30:15 PM 36.4117 -116.1919 131° Southeast 423 487 21,100 -2,030 Descending Los Angeles Center
Sun 08:31:26 PM 36.3283 -116.0792 133° Southeast 396 456 18,700 -2,177 Descending Los Angeles Center
Sun 08:32:19 PM 36.2650 -115.9872 130° Southeast 374 430 16,600 -1,409 Descending Los Angeles Center
Sun 08:33:21 PM 36.2014 -115.8986 132° Southeast 346 398 16,000 -242 Descending Los Angeles Center
Sun 08:34:23 PM 36.1647 -115.7858 112° Southeast 330 380 16,100 -435 Climbing Los Angeles Center
Sun 08:35:25 PM 36.1300 -115.6808 112° Southeast 329 379 15,100 -1,306 Descending Los Angeles Center
Sun 08:36:27 PM 36.0931 -115.5681 112° Southeast 328 377 13,400 -1,452 Descending Los Angeles Center
Sun 08:37:29 PM 36.0650 -115.4811 112° Southeast 321 369 12,100 -1,161 Descending Los Angeles Center
Sun 08:38:31 PM 36.0294 -115.3650 111° Southeast 308 354 11,000 -1,065 Descending Los Angeles Center
Sun 08:39:33 PM 36.0236 -115.2681 94° East 291 335 9,900 -1,113 Descending Los Angeles Center
Sun 08:40:35 PM 36.0161 -115.1725 96° East 284 327 8,700 -952 Descending Los Angeles Center
Sun 08:41:39 PM 36.0100 -115.0789 95° East 278 320 7,900 -1,152 Descending Los Angeles Center
Sun 08:42:40 PM 36.0053 -114.9858 94° East 274 315 6,300 -1,073 Descending Los Angeles Center
Sun 08:43:42 PM 36.0453 -114.9242 51° Northeast 273 314 5,700 -871 Descending Los Angeles Center
Sun 08:44:44 PM 36.0753 -114.9831 302° West 218 251 4,500 -1,113 Descending Los Angeles Center
Sun 08:45:46 PM 36.0733 -115.0419 268° West 191 220 3,400 -919 Descending Los Angeles Center
Sun 08:46:48 PM 36.0739 -115.0919 271° West 168 193 2,600 -677 Descending Los Angeles Center
Sun 08:47:50 PM 36.0736 -115.1383 270° West 151 174 2,000 -581 Descending Los Angeles Center
Sun 08:49:00 PM 36.0667 -115.1500 270° West  Level FlightAware Approximate

Login

Don't have an account? Register now (free) for customized features, flight alerts, and more!